Time;durP1;ratioP1;P1;durP2;ratioP2;P2;SDS_P1;SDS_P2;PMS_P1;PMS_P2;Temp;Humidity;BMP_temperature;BMP_pressure;BME280_temperature;BME280_humidity;BME280_pressure;Samples;Min_cycle;Max_cycle;Signal;HPM_P1;HPM_P2
2022/03/08 00:02:18;;;;;;;2.78;2.55;;;-0.40;69.10;;;;;;5031650;28;20431;-74
2022/03/08 00:04:43;;;;;;;0.50;0.50;;;-0.40;68.70;;;;;;5031524;28;20021;-74
2022/03/08 00:07:10;;;;;;;1.13;1.13;;;-0.50;68.80;;;;;;5031378;28;20167;-74
2022/03/08 00:09:36;;;;;;;2.90;2.78;;;-0.50;68.80;;;;;;5031546;28;20033;-74
2022/03/08 00:12:02;;;;;;;1.70;1.60;;;-0.40;69.10;;;;;;5031385;28;20122;-74
2022/03/08 00:14:29;;;;;;;6.63;4.07;;;-0.50;69.00;;;;;;5014715;28;20026;-75
2022/03/08 00:16:55;;;;;;;0.60;0.60;;;-0.70;69.20;;;;;;5014820;28;20026;-75
2022/03/08 00:19:21;;;;;;;2.63;2.40;;;-0.80;69.70;;;;;;5031792;28;20068;-75
2022/03/08 00:21:47;;;;;;;0.88;0.88;;;-0.80;69.70;;;;;;5014805;28;20032;-75
2022/03/08 00:24:14;;;;;;;2.83;2.15;;;-0.80;69.60;;;;;;5031141;28;20397;-75
2022/03/08 00:26:40;;;;;;;5.38;2.25;;;-0.90;69.80;;;;;;5031262;28;20026;-75
2022/03/08 00:29:06;;;;;;;1.08;1.08;;;-0.90;70.10;;;;;;5032333;28;20440;-75
2022/03/08 00:31:32;;;;;;;0.57;0.57;;;-1.20;70.30;;;;;;5032253;28;20481;-75
2022/03/08 00:33:57;;;;;;;0.50;0.50;;;-1.20;71.40;;;;;;5014724;28;20104;-76
2022/03/08 00:36:23;;;;;;;1.88;1.77;;;-1.10;71.30;;;;;;5030758;28;20186;-75
2022/03/08 00:38:49;;;;;;;3.88;3.35;;;-1.20;70.70;;;;;;5032191;28;20553;-75
2022/03/08 00:41:16;;;;;;;16.80;4.63;;;-1.10;70.70;;;;;;5014429;28;20029;-75
2022/03/08 00:43:42;;;;;;;1.10;1.10;;;-1.10;70.60;;;;;;5032285;28;20100;-76
2022/03/08 00:46:07;;;;;;;2.03;1.88;;;-1.30;71.10;;;;;;5030701;28;20443;-75
2022/03/08 00:48:33;;;;;;;1.52;1.38;;;-1.60;71.70;;;;;;5032185;28;20386;-75
2022/03/08 00:50:59;;;;;;;0.88;0.82;;;-1.70;72.50;;;;;;5030996;28;20030;-75
2022/03/08 00:53:25;;;;;;;4.70;2.90;;;-1.60;72.50;;;;;;5030747;28;20490;-75
2022/03/08 00:55:50;;;;;;;1.83;1.10;;;-1.40;71.80;;;;;;5031838;28;20036;-75
2022/03/08 00:58:16;;;;;;;2.78;2.03;;;-1.70;72.00;;;;;;5030906;28;20034;-75
2022/03/08 01:00:42;;;;;;;0.60;0.60;;;-1.80;72.70;;;;;;5030986;28;20442;-75
2022/03/08 01:03:08;;;;;;;4.82;4.53;;;-1.80;73.00;;;;;;5030823;28;20026;-75
2022/03/08 01:05:34;;;;;;;4.43;1.15;;;-1.70;73.00;;;;;;5030649;28;20417;-75
2022/03/08 01:08:00;;;;;;;1.95;1.85;;;-1.80;72.80;;;;;;5030715;28;20036;-75
2022/03/08 01:10:28;;;;;;;0.60;0.60;;;-1.70;72.80;;;;;;5032012;28;20040;-76
2022/03/08 01:12:54;;;;;;;0.82;0.82;;;-1.60;72.70;;;;;;5030614;28;20022;-75
2022/03/08 01:15:23;;;;;;;1.70;1.60;;;-1.70;73.00;;;;;;5030657;28;20030;-75
2022/03/08 01:17:49;;;;;;;4.18;3.05;;;-1.60;72.90;;;;;;5030473;28;20067;-75
2022/03/08 01:20:15;;;;;;;0.93;0.93;;;-1.40;72.30;;;;;;5031851;28;20504;-75
2022/03/08 01:22:41;;;;;;;0.73;0.73;;;-1.60;72.60;;;;;;5015809;23;20081;-72
2022/03/08 01:25:09;;;;;;;1.60;1.50;;;-1.70;72.70;;;;;;5007310;28;20030;-72
2022/03/08 01:27:35;;;;;;;11.52;10.63;;;-1.60;73.10;;;;;;4992531;28;20026;-72
2022/03/08 01:30:03;;;;;;;2.13;2.03;;;-1.70;72.80;;;;;;4992368;28;20033;-73
2022/03/08 01:32:29;;;;;;;0.80;0.80;;;-1.60;72.80;;;;;;4992347;28;20457;-72
2022/03/08 01:34:55;;;;;;;3.05;1.33;;;-1.50;72.60;;;;;;4992198;28;20109;-73
2022/03/08 01:37:20;;;;;;;1.55;1.52;;;-1.50;72.80;;;;;;4991980;28;20032;-73
2022/03/08 01:39:46;;;;;;;1.33;1.23;;;-1.50;72.30;;;;;;4991066;28;20133;-73
2022/03/08 01:42:15;;;;;;;1.50;1.40;;;-1.60;72.30;;;;;;4994308;28;20026;-73
2022/03/08 01:44:45;;;;;;;3.83;2.90;;;-1.60;72.70;;;;;;4995909;28;20018;-73
2022/03/08 01:47:17;;;;;;;1.25;1.25;;;-1.60;72.80;;;;;;4995896;28;20104;-73
2022/03/08 01:49:44;;;;;;;1.02;1.02;;;-1.60;73.40;;;;;;4995951;28;20029;-73
2022/03/08 01:52:10;;;;;;;0.85;0.85;;;-1.60;73.40;;;;;;4996087;28;20030;-72
2022/03/08 01:54:36;;;;;;;0.63;0.63;;;-1.60;73.40;;;;;;4994311;28;20081;-73
2022/03/08 01:57:04;;;;;;;0.80;0.80;;;-1.60;73.60;;;;;;4995553;28;20390;-73
2022/03/08 01:59:30;;;;;;;1.50;1.50;;;-1.70;74.20;;;;;;4994380;28;20056;-73
2022/03/08 02:01:56;;;;;;;0.93;0.93;;;-1.70;74.30;;;;;;4995859;28;20026;-73
2022/03/08 02:04:21;;;;;;;3.83;2.15;;;-1.50;74.20;;;;;;4994303;28;20482;-73
2022/03/08 02:06:48;;;;;;;2.15;2.05;;;-1.40;73.60;;;;;;4995424;28;20041;-73
2022/03/08 02:09:14;;;;;;;17.63;15.77;;;-1.30;73.20;;;;;;4995498;28;20117;-73
2022/03/08 02:11:41;;;;;;;1.02;1.02;;;-1.10;72.60;;;;;;4995438;28;20117;-73
2022/03/08 02:14:07;;;;;;;1.17;1.17;;;-1.00;72.30;;;;;;4995336;28;20031;-73
2022/03/08 02:16:33;;;;;;;1.58;1.50;;;-1.00;72.20;;;;;;4995198;28;20110;-73
2022/03/08 02:18:59;;;;;;;1.35;1.33;;;-1.20;72.00;;;;;;4995367;28;20101;-72
2022/03/08 02:21:25;;;;;;;3.45;3.25;;;-1.20;72.70;;;;;;4994041;28;20034;-72
2022/03/08 02:23:52;;;;;;;12.80;2.97;;;-1.30;73.00;;;;;;4995062;28;20117;-73
2022/03/08 02:26:21;;;;;;;0.50;0.50;;;-1.20;73.00;;;;;;4994987;28;20105;-73
2022/03/08 02:28:46;;;;;;;0.80;0.80;;;-1.30;73.30;;;;;;4995167;28;20178;-73
2022/03/08 02:31:12;;;;;;;3.75;3.35;;;-1.20;72.90;;;;;;4995398;28;20498;-73
2022/03/08 02:33:38;;;;;;;0.60;0.60;;;-1.10;72.80;;;;;;4994039;28;20073;-73
2022/03/08 02:36:07;;;;;;;4.13;2.70;;;-1.20;72.90;;;;;;4993649;28;20038;-72
2022/03/08 02:38:33;;;;;;;7.47;3.70;;;-1.10;73.00;;;;;;4994885;28;20043;-73
2022/03/08 02:40:58;;;;;;;17.25;12.05;;;-1.30;72.80;;;;;;4993680;28;20065;-73
2022/03/08 02:43:24;;;;;;;9.32;3.67;;;-1.20;73.70;;;;;;4994877;28;20038;-72
2022/03/08 02:45:50;;;;;;;7.72;4.57;;;-1.20;73.30;;;;;;4994660;28;20034;-72
2022/03/08 02:48:16;;;;;;;0.80;0.80;;;-1.40;73.20;;;;;;4994858;28;20022;-72
2022/03/08 02:50:41;;;;;;;4.45;4.00;;;-1.60;74.40;;;;;;4994748;28;20053;-71
2022/03/08 02:53:07;;;;;;;0.70;0.70;;;-1.70;74.20;;;;;;4994541;28;20109;-73
2022/03/08 02:55:35;;;;;;;6.60;2.72;;;-1.80;75.30;;;;;;4994378;28;20116;-73
2022/03/08 02:58:01;;;;;;;1.88;1.70;;;-2.00;75.50;;;;;;4994636;28;20490;-73
2022/03/08 03:00:29;;;;;;;2.17;1.13;;;-2.00;76.60;;;;;;4994532;28;20090;-73
2022/03/08 03:02:55;;;;;;;5.20;3.22;;;-1.90;75.90;;;;;;4993429;28;20482;-73
2022/03/08 03:05:21;;;;;;;2.15;2.05;;;-1.90;75.90;;;;;;4994374;28;20037;-72
2022/03/08 03:07:47;;;;;;;31.50;28.50;;;-1.90;75.60;;;;;;4994315;28;20034;-73
2022/03/08 03:10:16;;;;;;;1.00;1.00;;;-1.80;75.60;;;;;;4994342;28;20033;-72
2022/03/08 03:12:42;;;;;;;0.77;0.77;;;-1.90;75.00;;;;;;4994367;28;20339;-72
2022/03/08 03:15:10;;;;;;;0.50;0.50;;;-1.90;76.10;;;;;;4994232;28;20470;-72
2022/03/08 03:17:36;;;;;;;1.63;1.52;;;-1.60;75.90;;;;;;4994180;28;20054;-73
2022/03/08 03:20:03;;;;;;;1.88;1.77;;;-1.50;74.60;;;;;;4994205;28;20023;-72
2022/03/08 03:22:29;;;;;;;0.60;0.60;;;-1.60;74.50;;;;;;4994125;28;20037;-72
2022/03/08 03:24:55;;;;;;;2.80;2.58;;;-1.80;75.10;;;;;;4994028;28;20038;-72
2022/03/08 03:27:21;;;;;;;0.60;0.60;;;-1.90;75.10;;;;;;4994021;28;20106;-73
2022/03/08 03:29:47;;;;;;;0.82;0.82;;;-2.00;75.20;;;;;;4994086;28;20026;-73
2022/03/08 03:32:13;;;;;;;2.28;2.17;;;-2.20;75.70;;;;;;4993903;28;20019;-71
2022/03/08 03:34:39;;;;;;;0.95;0.95;;;-2.10;76.60;;;;;;4993829;28;20034;-73
2022/03/08 03:37:04;;;;;;;0.50;0.50;;;-2.10;77.30;;;;;;4992277;28;20080;-72
2022/03/08 03:39:31;;;;;;;2.72;1.85;;;-1.90;76.40;;;;;;4993852;28;20026;-73
2022/03/08 03:41:56;;;;;;;6.15;4.57;;;-1.80;75.60;;;;;;4993837;28;20602;-73
2022/03/08 03:44:22;;;;;;;0.60;0.60;;;-1.80;75.80;;;;;;4993869;28;20027;-73
2022/03/08 03:46:49;;;;;;;0.80;0.80;;;-1.60;75.80;;;;;;4992311;28;20037;-72
2022/03/08 03:49:14;;;;;;;0.95;0.95;;;-1.60;74.60;;;;;;4993684;28;20030;-73
2022/03/08 03:51:41;;;;;;;1.02;1.02;;;-1.60;74.20;;;;;;5008771;28;20475;-72
2022/03/08 03:54:07;;;;;;;0.70;0.70;;;-1.60;75.00;;;;;;4993456;28;20058;-73
2022/03/08 03:56:33;;;;;;;3.03;1.70;;;-1.60;74.90;;;;;;4992053;28;20064;-72
2022/03/08 03:58:59;;;;;;;0.60;0.60;;;-1.60;74.00;;;;;;4993503;28;20450;-72
2022/03/08 04:01:25;;;;;;;4.35;3.92;;;-1.70;74.40;;;;;;4993439;28;20025;-72
2022/03/08 04:03:51;;;;;;;0.70;0.70;;;-1.70;74.70;;;;;;5008331;28;20105;-72
2022/03/08 04:06:16;;;;;;;0.80;0.80;;;-1.60;75.00;;;;;;4991684;28;20549;-72
2022/03/08 04:08:43;;;;;;;0.60;0.60;;;-1.50;74.60;;;;;;4993278;28;20050;-72
2022/03/08 04:11:09;;;;;;;2.03;1.85;;;-1.60;75.10;;;;;;4993281;28;20023;-72
2022/03/08 04:13:35;;;;;;;4.07;1.67;;;-1.50;74.90;;;;;;4993181;28;20030;-72
2022/03/08 04:16:00;;;;;;;1.55;1.45;;;-1.60;74.30;;;;;;4993025;28;20112;-72
2022/03/08 04:18:26;;;;;;;6.05;4.10;;;-1.60;74.70;;;;;;5008254;28;20421;-72
2022/03/08 04:20:52;;;;;;;1.63;1.52;;;-1.70;74.20;;;;;;4993107;28;20030;-71
2022/03/08 04:23:18;;;;;;;0.60;0.60;;;-1.80;74.90;;;;;;4991690;28;20030;-73
2022/03/08 04:25:44;;;;;;;1.63;1.60;;;-1.70;75.40;;;;;;4992908;28;20030;-73
2022/03/08 04:28:10;;;;;;;1.17;1.17;;;-1.70;74.50;;;;;;4993058;28;20033;-73
2022/03/08 04:30:36;;;;;;;5.43;3.38;;;-1.60;74.80;;;;;;4991757;28;20052;-73
2022/03/08 04:33:01;;;;;;;5.70;2.08;;;-1.60;74.70;;;;;;4992861;28;20491;-72
2022/03/08 04:35:27;;;;;;;1.27;1.25;;;-1.80;74.30;;;;;;4992670;28;20084;-72
2022/03/08 04:37:53;;;;;;;0.65;0.65;;;-1.90;75.10;;;;;;4992436;28;20088;-72
2022/03/08 04:40:19;;;;;;;1.27;1.25;;;-1.90;76.10;;;;;;5007829;28;20045;-72
2022/03/08 04:42:46;;;;;;;1.75;1.65;;;-2.00;75.10;;;;;;4992800;28;20030;-72
2022/03/08 04:45:13;;;;;;;2.22;2.13;;;-2.20;75.90;;;;;;4992730;28;20426;-73
2022/03/08 04:47:39;;;;;;;5.82;3.72;;;-2.20;76.80;;;;;;4992525;28;20030;-72
2022/03/08 04:50:07;;;;;;;1.27;1.27;;;-2.10;77.00;;;;;;4992754;28;20022;-72
2022/03/08 04:52:33;;;;;;;6.13;3.90;;;-2.20;75.80;;;;;;4992558;28;20034;-72
2022/03/08 04:54:59;;;;;;;3.90;2.80;;;-2.30;76.10;;;;;;4991406;28;20048;-73
2022/03/08 04:57:24;;;;;;;0.75;0.75;;;-2.40;76.60;;;;;;4992571;28;20022;-72
2022/03/08 04:59:50;;;;;;;3.78;2.85;;;-2.70;77.30;;;;;;4992671;28;20101;-72
2022/03/08 05:02:16;;;;;;;2.97;1.92;;;-2.60;78.70;;;;;;4992624;28;20475;-72
2022/03/08 05:04:42;;;;;;;2.70;2.50;;;-2.50;77.00;;;;;;4991179;28;20022;-71
2022/03/08 05:07:07;;;;;;;1.77;1.67;;;-2.60;76.70;;;;;;4992379;28;20038;-73
2022/03/08 05:09:33;;;;;;;2.75;2.65;;;-2.50;78.00;;;;;;4992567;28;20081;-72
2022/03/08 05:11:59;;;;;;;2.65;2.45;;;-2.50;76.50;;;;;;4991393;28;20029;-72
2022/03/08 05:14:25;;;;;;;1.52;1.50;;;-2.50;77.60;;;;;;4992439;28;20027;-72
2022/03/08 05:16:51;;;;;;;0.73;0.73;;;-2.40;77.80;;;;;;4993397;28;20042;-72
2022/03/08 05:19:17;;;;;;;4.20;1.35;;;-2.20;77.20;;;;;;4996488;28;20034;-72
2022/03/08 05:21:43;;;;;;;1.23;1.23;;;-2.10;77.10;;;;;;4996248;28;20877;-72
2022/03/08 05:24:09;;;;;;;2.22;1.08;;;-2.10;77.10;;;;;;4996282;28;20062;-72
2022/03/08 05:26:37;;;;;;;1.05;1.05;;;-2.20;76.60;;;;;;4996128;28;20081;-73
2022/03/08 05:29:07;;;;;;;1.75;1.65;;;-2.10;76.70;;;;;;4996308;28;20054;-73
2022/03/08 05:31:33;;;;;;;2.33;2.22;;;-2.10;76.40;;;;;;4996251;28;20030;-72
2022/03/08 05:34:00;;;;;;;2.45;2.35;;;-2.20;76.00;;;;;;4996096;28;20026;-73
2022/03/08 05:36:26;;;;;;;0.60;0.60;;;-2.20;77.30;;;;;;4995493;28;20061;-72
2022/03/08 05:38:52;;;;;;;3.95;3.72;;;-2.30;76.60;;;;;;4994772;28;20490;-73
2022/03/08 05:41:18;;;;;;;1.98;1.88;;;-2.20;77.20;;;;;;4996198;28;20030;-72
2022/03/08 05:43:44;;;;;;;3.30;3.00;;;-2.40;76.80;;;;;;4995861;28;20481;-72
2022/03/08 05:46:10;;;;;;;1.05;1.05;;;-2.70;78.30;;;;;;4995579;28;20117;-73
2022/03/08 05:48:36;;;;;;;4.55;4.22;;;-2.50;79.40;;;;;;4995299;28;20141;-73
2022/03/08 05:51:02;;;;;;;1.75;1.65;;;-2.50;78.30;;;;;;4995822;28;20030;-72
2022/03/08 05:53:28;;;;;;;3.40;3.10;;;-2.70;78.40;;;;;;4994510;28;20030;-73
2022/03/08 05:55:54;;;;;;;3.78;2.50;;;-2.70;78.90;;;;;;4995523;28;20141;-73
2022/03/08 05:58:20;;;;;;;3.67;3.38;;;-3.00;80.10;;;;;;4995694;28;20534;-73
2022/03/08 06:00:46;;;;;;;0.68;0.68;;;-2.90;80.90;;;;;;4995530;28;20101;-73
2022/03/08 06:03:11;;;;;;;3.47;1.75;;;-2.70;80.50;;;;;;4994263;28;20077;-73
2022/03/08 06:05:37;;;;;;;2.70;2.50;;;-2.40;79.90;;;;;;4995239;28;20030;-72
2022/03/08 06:08:04;;;;;;;0.95;0.95;;;-2.20;79.10;;;;;;4995562;28;20110;-72
2022/03/08 06:10:31;;;;;;;4.70;2.03;;;-2.10;78.40;;;;;;4995381;28;20026;-73
2022/03/08 06:12:57;;;;;;;0.60;0.60;;;-2.00;78.10;;;;;;4995337;28;20026;-74
2022/03/08 06:15:23;;;;;;;1.92;1.80;;;-1.90;78.00;;;;;;4993942;28;20069;-73
2022/03/08 06:17:48;;;;;;;10.10;9.38;;;-1.90;77.50;;;;;;4993880;28;20080;-73
2022/03/08 06:20:14;;;;;;;8.60;4.45;;;-2.00;77.60;;;;;;4995116;28;20030;-73
2022/03/08 06:22:40;;;;;;;2.25;1.67;;;-2.10;77.70;;;;;;4993847;28;20030;-73
2022/03/08 06:25:07;;;;;;;2.97;1.77;;;-2.20;78.90;;;;;;4995145;28;20522;-72
2022/03/08 06:27:33;;;;;;;2.30;2.20;;;-2.40;79.30;;;;;;4994405;28;20026;-72
2022/03/08 06:29:59;;;;;;;1.38;1.27;;;-2.40;80.60;;;;;;4993839;28;20037;-72
2022/03/08 06:32:24;;;;;;;2.28;1.55;;;-2.20;80.10;;;;;;4995100;28;20022;-72
2022/03/08 06:34:51;;;;;;;4.72;4.40;;;-2.10;79.30;;;;;;4994803;28;20053;-72
2022/03/08 06:37:18;;;;;;;5.10;4.55;;;-2.00;79.80;;;;;;4993192;28;20394;-71
2022/03/08 06:39:45;;;;;;;2.63;2.42;;;-1.90;79.10;;;;;;4993847;28;20030;-73
2022/03/08 06:42:11;;;;;;;3.20;2.67;;;-1.80;78.80;;;;;;4994068;28;20073;-72
2022/03/08 06:44:38;;;;;;;2.88;2.03;;;-1.80;78.40;;;;;;4982793;28;20030;-71
2022/03/08 06:47:06;;;;;;;4.60;3.42;;;-1.80;78.50;;;;;;4975197;28;20442;-73
2022/03/08 06:49:33;;;;;;;1.63;1.50;;;-1.80;78.40;;;;;;4990147;28;20394;-73
2022/03/08 06:51:59;;;;;;;16.00;6.60;;;-2.00;78.60;;;;;;4982847;28;20029;-72
2022/03/08 06:54:25;;;;;;;5.60;4.53;;;-2.00;78.90;;;;;;4995214;28;20026;-72
2022/03/08 06:56:50;;;;;;;3.20;1.85;;;-1.90;79.40;;;;;;4994860;28;20109;-73
2022/03/08 06:59:16;;;;;;;8.43;3.45;;;-1.90;78.90;;;;;;4994495;28;20023;-73
2022/03/08 07:01:42;;;;;;;2.05;1.90;;;-1.80;79.20;;;;;;4994569;28;20549;-73
2022/03/08 07:04:08;;;;;;;2.95;2.75;;;-1.70;79.00;;;;;;4994326;28;20490;-71
2022/03/08 07:06:34;;;;;;;20.90;17.98;;;-1.80;78.90;;;;;;4994309;28;20041;-73
2022/03/08 07:08:59;;;;;;;16.55;9.10;;;-1.60;79.10;;;;;;4993129;28;20031;-73
2022/03/08 07:11:25;;;;;;;14.93;8.32;;;-1.50;78.80;;;;;;4994275;28;20037;-72
2022/03/08 07:13:51;;;;;;;5.80;3.67;;;-1.60;78.60;;;;;;5009120;28;20097;-73
2022/03/08 07:16:18;;;;;;;6.45;4.55;;;-1.70;79.10;;;;;;4993995;28;20124;-73
2022/03/08 07:18:44;;;;;;;12.88;5.50;;;-1.70;79.40;;;;;;4992909;28;20105;-73
2022/03/08 07:21:10;;;;;;;4.35;3.25;;;-1.50;79.60;;;;;;5009090;28;20148;-73
2022/03/08 07:23:36;;;;;;;7.03;2.15;;;-1.60;78.90;;;;;;5080398;22;20042;-76
2022/03/08 07:26:03;;;;;;;6.05;4.00;;;-1.60;79.30;;;;;;5012289;28;20029;-76
2022/03/08 07:28:29;;;;;;;8.63;4.45;;;-1.50;79.50;;;;;;5012807;28;20033;-76
2022/03/08 07:30:54;;;;;;;5.55;4.63;;;-1.30;79.20;;;;;;4996397;28;20393;-75
2022/03/08 07:33:20;;;;;;;5.85;5.40;;;-1.20;78.40;;;;;;5012574;28;20076;-75
2022/03/08 07:35:46;;;;;;;8.13;4.35;;;-1.10;78.50;;;;;;5012767;28;20065;-75
2022/03/08 07:38:12;;;;;;;3.78;2.65;;;-1.00;77.80;;;;;;5013700;28;20046;-75
2022/03/08 07:40:38;;;;;;;10.60;5.30;;;-0.90;77.00;;;;;;5012189;28;20022;-75
2022/03/08 07:43:04;;;;;;;6.20;3.35;;;-0.90;76.70;;;;;;5012497;28;20398;-76
2022/03/08 07:45:30;;;;;;;2.47;1.48;;;-0.90;77.30;;;;;;5011568;28;20022;-75
2022/03/08 07:47:56;;;;;;;1.70;1.60;;;-0.80;77.30;;;;;;5013262;28;20121;-75
2022/03/08 07:50:25;;;;;;;1.52;1.40;;;-0.80;76.80;;;;;;4995747;28;20062;-75
2022/03/08 07:52:52;;;;;;;17.77;4.38;;;-0.70;77.00;;;;;;5010250;28;20029;-75
2022/03/08 07:55:18;;;;;;;4.95;3.92;;;-0.70;76.90;;;;;;5009191;28;20030;-76
2022/03/08 07:57:43;;;;;;;15.55;5.32;;;-0.70;76.70;;;;;;5010093;28;20104;-78
2022/03/08 08:00:10;;;;;;;1.45;1.35;;;-0.60;77.10;;;;;;4993417;28;20025;-76
2022/03/08 08:02:37;;;;;;;15.13;5.85;;;-0.70;77.30;;;;;;5008871;28;20025;-75
2022/03/08 08:05:03;;;;;;;10.15;5.28;;;-0.80;77.00;;;;;;5010300;28;20400;-75
2022/03/08 08:07:29;;;;;;;19.92;8.70;;;-0.80;77.80;;;;;;5010952;28;20033;-75
2022/03/08 08:09:55;;;;;;;0.75;0.75;;;-0.80;77.10;;;;;;5010028;28;20393;-75
2022/03/08 08:12:21;;;;;;;0.90;0.90;;;-0.90;78.30;;;;;;5010645;28;20053;-75
2022/03/08 08:14:47;;;;;;;3.45;3.17;;;-0.60;77.80;;;;;;4993656;28;20026;-75
2022/03/08 08:17:13;;;;;;;6.47;4.28;;;-0.50;77.70;;;;;;4993910;28;20030;-75
2022/03/08 08:19:39;;;;;;;8.35;7.50;;;-0.30;77.30;;;;;;4993830;28;20053;-75
2022/03/08 08:22:04;;;;;;;1.42;1.40;;;-0.30;75.50;;;;;;5027390;28;20026;-75
2022/03/08 08:24:30;;;;;;;6.55;4.30;;;-0.20;76.30;;;;;;5011120;28;20092;-75
2022/03/08 08:26:56;;;;;;;7.43;5.22;;;-0.30;75.70;;;;;;5011654;28;20026;-75
2022/03/08 08:29:22;;;;;;;8.30;3.92;;;-0.20;75.50;;;;;;5011961;28;20392;-75
2022/03/08 08:31:48;;;;;;;2.10;1.90;;;-0.20;75.10;;;;;;5009959;28;20025;-75
2022/03/08 08:34:13;;;;;;;8.18;4.70;;;-0.10;75.10;;;;;;5012149;28;20033;-75
2022/03/08 08:36:39;;;;;;;61.03;10.38;;;0.00;74.50;;;;;;5009935;28;20033;-75
2022/03/08 08:39:05;;;;;;;2.10;1.90;;;-0.10;74.40;;;;;;5011442;28;20073;-74
2022/03/08 08:41:31;;;;;;;10.18;6.07;;;0.00;74.80;;;;;;4993040;28;20028;-75
2022/03/08 08:43:57;;;;;;;23.55;5.30;;;0.10;74.60;;;;;;5010409;28;20101;-74
2022/03/08 08:46:22;;;;;;;6.25;2.83;;;0.20;73.60;;;;;;5009907;28;20095;-74
2022/03/08 08:48:48;;;;;;;0.45;0.45;;;0.20;72.80;;;;;;5010176;28;20413;-75
2022/03/08 08:51:14;;;;;;;0.50;0.50;;;0.30;72.60;;;;;;5010795;28;20103;-75
2022/03/08 08:53:40;;;;;;;5.07;2.60;;;0.50;72.30;;;;;;5011607;28;20401;-75
2022/03/08 08:56:06;;;;;;;1.65;1.55;;;0.60;71.40;;;;;;5009478;28;20034;-75
2022/03/08 08:58:32;;;;;;;0.93;0.93;;;0.60;71.90;;;;;;5009493;28;20025;-75
2022/03/08 09:00:57;;;;;;;1.58;1.50;;;0.80;71.40;;;;;;4992969;28;20097;-75
2022/03/08 09:03:23;;;;;;;4.38;3.30;;;0.90;69.20;;;;;;5009837;28;20022;-75
2022/03/08 09:05:49;;;;;;;4.68;3.03;;;0.90;68.40;;;;;;5009090;28;20112;-75
2022/03/08 09:08:15;;;;;;;5.22;2.22;;;1.00;67.20;;;;;;5010546;28;20036;-76
2022/03/08 09:10:41;;;;;;;18.52;2.47;;;1.00;66.10;;;;;;5010795;28;20030;-76
2022/03/08 09:13:07;;;;;;;11.20;6.28;;;1.10;66.30;;;;;;5009005;28;20026;-74
2022/03/08 09:15:33;;;;;;;5.80;3.58;;;1.20;65.40;;;;;;5010136;28;20405;-76
2022/03/08 09:17:59;;;;;;;2.55;2.33;;;1.30;64.80;;;;;;5009782;28;20389;-76
2022/03/08 09:20:26;;;;;;;9.05;5.40;;;1.50;65.00;;;;;;5010609;28;20481;-77
2022/03/08 09:22:53;;;;;;;3.47;2.90;;;1.70;63.70;;;;;;5010617;28;20036;-76
2022/03/08 09:25:19;;;;;;;2.47;1.63;;;1.90;61.50;;;;;;5010695;28;20034;-76
2022/03/08 09:27:45;;;;;;;4.45;3.33;;;2.20;60.70;;;;;;5010200;28;20382;-76
2022/03/08 09:30:12;;;;;;;2.78;2.22;;;2.60;59.60;;;;;;5010508;28;20401;-76
2022/03/08 09:32:38;;;;;;;6.10;2.90;;;2.90;59.20;;;;;;5014798;28;20037;-76
2022/03/08 09:35:05;;;;;;;5.10;2.70;;;3.30;58.80;;;;;;5010558;28;20038;-77
2022/03/08 09:37:30;;;;;;;7.43;4.45;;;3.40;58.80;;;;;;5011798;28;20018;-76
2022/03/08 09:39:56;;;;;;;6.53;3.00;;;3.60;58.70;;;;;;5011382;28;20034;-76
2022/03/08 09:42:22;;;;;;;12.40;3.60;;;3.80;58.40;;;;;;5009938;28;20431;-76
2022/03/08 09:44:48;;;;;;;4.35;2.38;;;4.10;57.60;;;;;;4993881;28;20030;-77
2022/03/08 09:47:18;;;;;;;6.60;1.92;;;4.60;57.00;;;;;;5009561;28;20069;-77
2022/03/08 09:49:45;;;;;;;14.20;3.55;;;4.80;55.90;;;;;;5010173;28;20029;-76
2022/03/08 09:52:11;;;;;;;5.82;3.60;;;4.80;55.00;;;;;;5009484;28;20037;-77
2022/03/08 09:54:37;;;;;;;2.67;2.22;;;5.00;54.90;;;;;;5012186;28;20097;-77
2022/03/08 09:57:13;;;;;;;12.35;4.05;;;5.60;54.40;;;;;;5013109;28;20030;-76
2022/03/08 09:59:39;;;;;;;3.55;1.33;;;5.90;52.80;;;;;;5013743;28;20029;-77
2022/03/08 10:02:06;;;;;;;5.25;2.22;;;6.10;52.40;;;;;;5012151;28;20018;-77
2022/03/08 10:04:31;;;;;;;2.17;1.55;;;6.20;51.70;;;;;;5016183;28;20076;-77
2022/03/08 10:06:58;;;;;;;6.95;3.97;;;6.40;50.80;;;;;;4998786;28;20034;-77
2022/03/08 10:09:25;;;;;;;7.32;3.60;;;6.50;50.40;;;;;;5015817;28;20060;-77
2022/03/08 10:11:52;;;;;;;2.72;2.60;;;6.80;50.20;;;;;;5017204;28;20101;-77
2022/03/08 10:14:38;;;;;;;3.97;2.22;;;7.30;50.00;;;;;;5016692;28;20030;-77
2022/03/08 10:17:09;;;;;;;0.77;0.77;;;7.30;48.80;;;;;;5017420;28;20489;-77
2022/03/08 10:19:45;;;;;;;2.20;1.92;;;7.80;48.40;;;;;;5019085;28;20017;-77
2022/03/08 10:22:23;;;;;;;4.25;3.53;;;8.20;47.30;;;;;;5018319;28;20025;-77
2022/03/08 10:24:49;;;;;;;2.90;1.65;;;8.50;46.30;;;;;;5018489;28;20061;-77
2022/03/08 10:27:16;;;;;;;14.68;4.95;;;8.90;45.80;;;;;;5001037;28;20033;-77
2022/03/08 10:29:42;;;;;;;13.25;2.60;;;9.00;45.20;;;;;;5000763;28;20539;-77
2022/03/08 10:32:11;;;;;;;1.35;1.02;;;9.20;44.30;;;;;;5017449;28;20048;-77
2022/03/08 10:34:38;;;;;;;6.97;2.65;;;9.40;43.60;;;;;;5015934;28;20018;-77
2022/03/08 10:37:07;;;;;;;3.08;1.42;;;9.20;42.40;;;;;;5017114;28;20429;-77
2022/03/08 10:39:34;;;;;;;3.22;1.80;;;9.30;42.60;;;;;;4998681;28;20037;-77
2022/03/08 10:42:00;;;;;;;5.13;2.05;;;9.10;42.70;;;;;;4997941;28;20049;-77
2022/03/08 10:44:44;;;;;;;4.10;3.00;;;9.40;41.30;;;;;;5016130;28;20033;-77
2022/03/08 10:47:12;;;;;;;10.70;3.13;;;9.40;40.50;;;;;;5014480;28;20063;-77
2022/03/08 10:49:59;;;;;;;3.50;2.25;;;9.30;41.30;;;;;;5016769;28;20083;-77
2022/03/08 10:52:30;;;;;;;3.75;2.65;;;9.50;40.40;;;;;;5013624;28;20046;-77
2022/03/08 10:55:31;;;;;;;1.30;1.10;;;9.90;40.40;;;;;;4998408;28;20049;-77
2022/03/08 10:58:03;;;;;;;5.13;3.40;;;10.00;40.60;;;;;;4996057;28;20034;-77
2022/03/08 11:00:37;;;;;;;1.85;1.75;;;10.10;39.60;;;;;;5017586;28;20018;-78
2022/03/08 11:03:08;;;;;;;4.20;3.00;;;10.40;39.50;;;;;;5018689;28;20033;-77
2022/03/08 11:05:40;;;;;;;3.30;1.50;;;10.20;38.40;;;;;;5016108;28;20449;-77
2022/03/08 11:08:06;;;;;;;5.57;2.72;;;10.60;38.30;;;;;;5016028;28;20022;-75
2022/03/08 11:10:33;;;;;;;1.95;1.85;;;11.20;37.20;;;;;;5011608;28;20056;-75
2022/03/08 11:13:00;;;;;;;4.10;2.28;;;11.00;37.00;;;;;;5012519;28;20026;-75
2022/03/08 11:15:28;;;;;;;1.88;1.05;;;11.10;37.40;;;;;;5012994;28;20049;-76
2022/03/08 11:17:55;;;;;;;2.28;1.75;;;11.60;37.20;;;;;;4993755;28;20685;-75
2022/03/08 11:20:22;;;;;;;4.53;2.55;;;10.90;36.80;;;;;;5012663;28;20412;-75
2022/03/08 11:22:56;;;;;;;1.17;1.08;;;11.40;37.70;;;;;;5013590;28;20022;-75
2022/03/08 11:25:27;;;;;;;3.58;2.42;;;11.80;36.30;;;;;;5010858;28;20428;-75
2022/03/08 11:27:54;;;;;;;3.45;2.58;;;11.50;36.30;;;;;;5011010;28;20030;-75
2022/03/08 11:30:33;;;;;;;2.22;2.05;;;11.40;36.00;;;;;;5010765;28;20030;-76
2022/03/08 11:33:30;;;;;;;6.50;3.05;;;11.50;36.00;;;;;;5010769;28;20065;-76
2022/03/08 11:36:15;;;;;;;20.30;4.50;;;11.70;35.40;;;;;;5012286;28;20030;-75
2022/03/08 11:38:41;;;;;;;2.05;1.92;;;11.20;36.30;;;;;;5010658;28;20022;-75
2022/03/08 11:41:06;;;;;;;3.72;2.00;;;11.50;36.60;;;;;;4994421;28;20527;-76
2022/03/08 11:43:44;;;;;;;7.90;1.65;;;11.60;36.90;;;;;;5011902;28;20514;-75
2022/03/08 11:46:18;;;;;;;1.35;0.65;;;11.80;36.80;;;;;;5007623;28;20060;-76
2022/03/08 11:48:50;;;;;;;0.98;0.93;;;11.80;35.70;;;;;;5009079;28;20087;-75
2022/03/08 11:51:16;;;;;;;3.75;2.78;;;12.00;35.00;;;;;;4994750;28;20022;-76
2022/03/08 11:53:46;;;;;;;0.88;0.88;;;11.90;35.20;;;;;;5009202;28;20036;-75
2022/03/08 11:56:17;;;;;;;10.40;1.67;;;11.70;35.00;;;;;;5010501;28;20387;-75
2022/03/08 11:58:45;;;;;;;5.60;1.83;;;11.10;35.70;;;;;;5010531;28;20022;-75
2022/03/08 12:01:28;;;;;;;1.55;1.45;;;11.50;35.60;;;;;;5011887;28;20060;-75
2022/03/08 12:04:09;;;;;;;2.65;1.80;;;11.50;35.50;;;;;;5010299;28;20030;-75
2022/03/08 12:06:37;;;;;;;2.05;1.83;;;12.00;35.70;;;;;;5010394;28;20608;-77
2022/03/08 12:09:13;;;;;;;5.95;2.75;;;12.00;35.20;;;;;;5010283;28;20363;-75
2022/03/08 12:11:42;;;;;;;0.52;0.52;;;11.50;35.60;;;;;;4994284;28;20060;-76
2022/03/08 12:14:19;;;;;;;3.00;1.60;;;12.30;35.20;;;;;;5009844;28;20033;-76
2022/03/08 12:16:49;;;;;;;3.40;2.05;;;12.40;33.30;;;;;;5010095;28;20489;-75
2022/03/08 12:19:33;;;;;;;5.85;2.58;;;12.30;33.40;;;;;;5011444;28;20022;-75
2022/03/08 12:22:00;;;;;;;0.88;0.88;;;12.90;34.20;;;;;;5010588;28;20068;-75
2022/03/08 12:24:26;;;;;;;0.68;0.68;;;13.00;33.40;;;;;;5011201;28;20377;-75
2022/03/08 12:26:56;;;;;;;1.83;1.27;;;13.10;33.60;;;;;;5009452;28;20068;-75
2022/03/08 12:29:44;;;;;;;1.63;1.55;;;12.50;33.60;;;;;;5011242;28;20497;-76
2022/03/08 12:32:11;;;;;;;5.85;3.53;;;12.90;34.40;;;;;;5009937;28;20032;-75
2022/03/08 12:34:40;;;;;;;0.68;0.68;;;12.40;34.10;;;;;;5010871;28;20041;-75
2022/03/08 12:37:25;;;;;;;6.47;2.35;;;11.80;35.70;;;;;;5010676;28;20473;-75
2022/03/08 12:39:58;;;;;;;2.78;2.13;;;11.70;36.10;;;;;;5005767;28;20014;-75
2022/03/08 12:42:44;;;;;;;5.25;2.30;;;12.30;35.30;;;;;;5010547;28;20017;-75
2022/03/08 12:45:23;;;;;;;0.38;0.38;;;12.20;35.30;;;;;;5007587;28;20052;-75
2022/03/08 12:47:53;;;;;;;2.80;0.90;;;12.00;35.00;;;;;;5010995;28;20018;-77
2022/03/08 12:50:25;;;;;;;1.33;1.23;;;11.80;35.00;;;;;;5009761;28;20422;-76